Hillsborough, New Hampshire
Current Conditions -  °F | °C
As of 8:51 PM on Sunday 25 Jan 2015 (Local Time) from KCON Reporting Station
Clear Clear  
Wind Chill:   Ceiling: Unl
Heat Index: 16°   Visibility: 10mi
Dew Point:   Wind: 14mph
Humidity: 49%   Direction: 320°NW
Pressure: 29.98"   Gusts: NA
Location:  43.1281°N, 71.9266°W
Report Text: KCON 260151Z AUTO 32012KT 10SM CLR M09/M18 A2998 RMK AO2 SLP156 T10891178
Loading
Personal Weather Stations






























Interactive Weather Map New forecast layout! Learn more

10-Day Weather Forecast

Advertisements
Track Severe Weather on mobile